Time;durP1;ratioP1;P1;durP2;ratioP2;P2;SDS_P1;SDS_P2;PMS_P1;PMS_P2;Temp;Humidity;BMP_temperature;BMP_pressure;BME280_temperature;BME280_humidity;BME280_pressure;Samples;Min_cycle;Max_cycle;Signal;HPM_P1;HPM_P2
2022/09/01 00:01:17;;;;;;;0.95;0.45;;;14.70;99.90;;;;;;5020497;28;20438;-77
2022/09/01 00:03:45;;;;;;;0.43;0.43;;;14.70;99.90;;;;;;5020007;28;20029;-77
2022/09/01 00:06:11;;;;;;;0.52;0.52;;;14.70;99.90;;;;;;5017185;28;20025;-78
2022/09/01 00:08:36;;;;;;;0.40;0.40;;;14.80;99.90;;;;;;5014284;28;20088;-78
2022/09/01 00:11:02;;;;;;;0.43;0.43;;;14.70;99.90;;;;;;5018884;28;20018;-78
2022/09/01 00:13:31;;;;;;;2.53;1.08;;;14.70;99.90;;;;;;5017528;28;20086;-77
2022/09/01 00:15:57;;;;;;;0.95;0.65;;;14.60;99.90;;;;;;5018948;28;20068;-77
2022/09/01 00:18:23;;;;;;;0.60;0.60;;;14.70;99.90;;;;;;5017720;28;20045;-77
2022/09/01 00:20:49;;;;;;;0.40;0.40;;;14.60;99.90;;;;;;5020410;28;20048;-77
2022/09/01 00:23:14;;;;;;;0.80;0.60;;;14.60;99.90;;;;;;5020889;28;20022;-77
2022/09/01 00:25:40;;;;;;;0.40;0.40;;;14.60;99.90;;;;;;5018925;28;20091;-77
2022/09/01 00:28:05;;;;;;;0.63;0.47;;;14.50;99.90;;;;;;5014883;28;20113;-77
2022/09/01 00:30:31;;;;;;;0.65;0.57;;;14.50;99.90;;;;;;5017914;28;20054;-77
2022/09/01 00:32:56;;;;;;;0.50;0.50;;;14.50;99.90;;;;;;5017805;28;20087;-76
2022/09/01 00:35:22;;;;;;;0.50;0.50;;;14.40;99.90;;;;;;5021135;28;20060;-77
2022/09/01 00:37:47;;;;;;;0.50;0.50;;;14.30;99.90;;;;;;5015330;28;20036;-78
2022/09/01 00:40:14;;;;;;;0.30;0.30;;;14.30;99.90;;;;;;5016862;28;20037;-77
2022/09/01 00:42:40;;;;;;;0.70;0.65;;;14.20;99.90;;;;;;5016217;28;20037;-77
2022/09/01 00:45:07;;;;;;;0.40;0.40;;;14.20;99.90;;;;;;5019094;28;20079;-77
2022/09/01 00:47:34;;;;;;;0.65;0.55;;;14.10;99.90;;;;;;5017566;28;20718;-78
2022/09/01 00:50:02;;;;;;;0.60;0.50;;;14.10;99.90;;;;;;5019178;28;20034;-77
2022/09/01 00:52:32;;;;;;;1.23;0.98;;;14.20;99.90;;;;;;5015522;28;20692;-78
2022/09/01 00:55:04;;;;;;;0.70;0.52;;;14.20;99.90;;;;;;5017675;28;20057;-77
2022/09/01 00:57:29;;;;;;;0.68;0.50;;;14.10;99.90;;;;;;5016871;28;20040;-78
2022/09/01 01:00:02;;;;;;;1.02;0.50;;;14.10;99.90;;;;;;5015061;28;20026;-78
2022/09/01 01:02:28;;;;;;;36.50;1.15;;;14.10;99.90;;;;;;5014603;28;20033;-77
2022/09/01 01:04:54;;;;;;;0.30;0.30;;;14.10;99.90;;;;;;5021486;28;20041;-77
2022/09/01 01:07:21;;;;;;;0.52;0.52;;;14.10;99.90;;;;;;5019074;28;20120;-77
2022/09/01 01:09:47;;;;;;;2.53;0.77;;;14.10;99.90;;;;;;5017300;28;20025;-78
2022/09/01 01:12:17;;;;;;;0.80;0.40;;;14.10;99.90;;;;;;5018885;28;20120;-77
2022/09/01 01:14:48;;;;;;;0.43;0.43;;;14.10;99.90;;;;;;5018186;28;20025;-78
2022/09/01 01:17:15;;;;;;;0.45;0.45;;;14.10;99.90;;;;;;5020153;28;20508;-77
2022/09/01 01:23:01;;;;;;;3.58;0.50;;;14.00;99.90;;;;;;5024206;28;20048;-77
2022/09/01 01:25:31;;;;;;;0.30;0.30;;;14.00;99.90;;;;;;5024287;28;20057;-78
2022/09/01 01:28:18;;;;;;;1.23;0.70;;;13.80;99.90;;;;;;5023348;28;20033;-77
2022/09/01 01:30:51;;;;;;;0.40;0.40;;;13.80;99.90;;;;;;5024594;28;20041;-77
2022/09/01 01:33:25;;;;;;;0.60;0.60;;;13.80;99.90;;;;;;5016027;28;20127;-77
2022/09/01 01:35:52;;;;;;;0.68;0.68;;;13.80;99.90;;;;;;5024397;28;20037;-77
2022/09/01 01:38:21;;;;;;;0.52;0.40;;;13.80;99.90;;;;;;5020661;28;20103;-77
2022/09/01 01:40:47;;;;;;;2.78;0.68;;;13.80;99.90;;;;;;5021260;28;20191;-77
2022/09/01 01:43:21;;;;;;;0.70;0.50;;;13.80;99.90;;;;;;5018291;28;20483;-77
2022/09/01 01:45:50;;;;;;;0.40;0.40;;;13.80;99.90;;;;;;5022650;28;20105;-77
2022/09/01 01:48:22;;;;;;;0.73;0.73;;;13.80;99.90;;;;;;5029596;28;20426;-78
2022/09/01 01:50:51;;;;;;;1.48;0.60;;;13.80;99.90;;;;;;5021928;28;20033;-77
2022/09/01 01:53:18;;;;;;;0.57;0.57;;;13.70;99.90;;;;;;5021182;28;20472;-77
2022/09/01 01:55:44;;;;;;;0.50;0.50;;;13.70;99.90;;;;;;5019160;28;20026;-77
2022/09/01 01:58:14;;;;;;;0.60;0.60;;;13.70;99.90;;;;;;5020146;28;20049;-77
2022/09/01 02:00:43;;;;;;;0.60;0.60;;;13.60;99.90;;;;;;5022953;28;20052;-77
2022/09/01 02:03:11;;;;;;;0.70;0.70;;;13.40;99.90;;;;;;5020235;28;20049;-77
2022/09/01 02:05:38;;;;;;;0.98;0.68;;;13.30;99.90;;;;;;5024440;28;20485;-77
2022/09/01 02:08:09;;;;;;;0.60;0.60;;;13.20;99.90;;;;;;5020451;28;20030;-77
2022/09/01 02:10:40;;;;;;;0.50;0.50;;;13.00;99.90;;;;;;5021119;28;20144;-77
2022/09/01 02:13:06;;;;;;;0.90;0.63;;;12.80;99.90;;;;;;5020512;28;20029;-77
2022/09/01 02:15:43;;;;;;;0.93;0.65;;;12.60;99.90;;;;;;5021770;28;20383;-77
2022/09/01 02:18:10;;;;;;;0.40;0.40;;;12.60;99.90;;;;;;5021933;28;20072;-78
2022/09/01 02:20:35;;;;;;;0.52;0.52;;;12.50;99.90;;;;;;5021875;28;20446;-77
2022/09/01 02:23:08;;;;;;;0.43;0.40;;;12.60;99.90;;;;;;5023247;28;20124;-77
2022/09/01 02:25:34;;;;;;;0.55;0.50;;;12.60;99.90;;;;;;5019999;28;20026;-77
2022/09/01 02:28:01;;;;;;;0.30;0.30;;;12.60;99.90;;;;;;5019972;28;20028;-77
2022/09/01 02:30:27;;;;;;;0.50;0.40;;;12.60;99.90;;;;;;5018063;28;20073;-77
2022/09/01 02:32:52;;;;;;;0.60;0.60;;;12.70;99.90;;;;;;5023560;28;20110;-76
2022/09/01 02:35:18;;;;;;;0.75;0.60;;;12.80;99.90;;;;;;5018121;28;20476;-77
2022/09/01 02:37:48;;;;;;;0.40;0.40;;;12.80;99.90;;;;;;5021034;28;20033;-77
2022/09/01 02:40:14;;;;;;;0.50;0.50;;;12.80;99.90;;;;;;5018361;28;20037;-77
2022/09/01 02:42:40;;;;;;;1.10;0.70;;;12.70;99.90;;;;;;5024224;28;20415;-77
2022/09/01 02:45:10;;;;;;;0.43;0.43;;;12.60;99.90;;;;;;5020143;28;20025;-77
2022/09/01 02:47:39;;;;;;;0.68;0.68;;;12.40;99.90;;;;;;5022045;28;20694;-76
2022/09/01 02:50:05;;;;;;;0.93;0.60;;;12.30;99.90;;;;;;5017621;28;20041;-77
2022/09/01 02:52:36;;;;;;;0.80;0.80;;;12.20;99.90;;;;;;5022091;28;20040;-76
2022/09/01 02:55:02;;;;;;;0.30;0.30;;;12.10;99.90;;;;;;5024030;28;20100;-76
2022/09/01 02:57:28;;;;;;;0.88;0.88;;;12.00;99.90;;;;;;5021602;28;20120;-76
2022/09/01 02:59:57;;;;;;;0.60;0.57;;;11.90;99.90;;;;;;5017442;28;20480;-77
2022/09/01 03:02:25;;;;;;;0.65;0.60;;;11.80;99.90;;;;;;5018757;28;20041;-76
2022/09/01 03:04:53;;;;;;;0.55;0.47;;;11.70;99.90;;;;;;5022780;28;20021;-77
2022/09/01 03:07:20;;;;;;;0.80;0.80;;;11.70;99.90;;;;;;5021666;28;20028;-77
2022/09/01 03:09:46;;;;;;;0.73;0.73;;;11.70;99.90;;;;;;5021678;28;20060;-77
2022/09/01 03:12:11;;;;;;;0.43;0.40;;;11.60;99.90;;;;;;5013590;28;20472;-76
2022/09/01 03:14:36;;;;;;;0.85;0.75;;;11.50;99.90;;;;;;5022992;28;20486;-76
2022/09/01 03:17:02;;;;;;;0.52;0.52;;;11.40;99.90;;;;;;5018711;28;20045;-76
2022/09/01 03:19:31;;;;;;;0.73;0.50;;;11.40;99.90;;;;;;5014519;28;20037;-76
2022/09/01 03:21:58;;;;;;;0.98;0.82;;;11.40;99.90;;;;;;5020631;28;20028;-76
2022/09/01 03:24:24;;;;;;;0.57;0.57;;;11.30;99.90;;;;;;5022857;28;20480;-78
2022/09/01 03:26:50;;;;;;;0.65;0.63;;;11.30;99.90;;;;;;5022637;28;20033;-77
2022/09/01 03:29:16;;;;;;;0.90;0.90;;;11.20;99.90;;;;;;5022518;28;20021;-76
2022/09/01 03:31:42;;;;;;;0.60;0.60;;;11.10;99.90;;;;;;5017245;28;20037;-77
2022/09/01 03:34:09;;;;;;;0.40;0.40;;;11.10;99.90;;;;;;5015630;28;20514;-77
2022/09/01 03:36:35;;;;;;;0.77;0.77;;;11.10;99.90;;;;;;5018857;28;20037;-77
2022/09/01 03:39:01;;;;;;;0.45;0.45;;;11.00;99.90;;;;;;5021725;28;20434;-76
2022/09/01 03:41:28;;;;;;;0.47;0.32;;;11.10;99.90;;;;;;5019582;28;20076;-77
2022/09/01 03:43:56;;;;;;;0.55;0.55;;;11.00;99.90;;;;;;5019282;28;20502;-77
2022/09/01 03:46:23;;;;;;;1.00;0.47;;;10.90;99.90;;;;;;5021083;28;20033;-78
2022/09/01 03:48:53;;;;;;;0.73;0.70;;;10.90;99.90;;;;;;5021407;28;20037;-78
2022/09/01 03:51:21;;;;;;;0.63;0.52;;;10.90;99.90;;;;;;5019722;28;20026;-78
2022/09/01 03:53:47;;;;;;;0.50;0.50;;;10.80;99.90;;;;;;5021079;28;20508;-78
2022/09/01 03:56:14;;;;;;;0.68;0.50;;;10.80;99.90;;;;;;5018134;28;20092;-78
2022/09/01 03:58:41;;;;;;;0.43;0.43;;;10.90;99.90;;;;;;5018097;28;20064;-78
2022/09/01 04:01:07;;;;;;;0.63;0.60;;;10.80;99.90;;;;;;5019504;28;20044;-78
2022/09/01 04:03:33;;;;;;;0.60;0.60;;;10.60;99.90;;;;;;5025385;28;20076;-78
2022/09/01 04:06:01;;;;;;;0.60;0.60;;;10.60;99.90;;;;;;5019942;28;20025;-78
2022/09/01 04:08:29;;;;;;;0.60;0.60;;;10.60;99.90;;;;;;5016176;28;20391;-78
2022/09/01 04:10:57;;;;;;;0.50;0.50;;;10.60;99.90;;;;;;5020017;28;20499;-79
2022/09/01 04:13:34;;;;;;;1.38;0.70;;;10.60;99.90;;;;;;5015259;28;20044;-78
2022/09/01 04:16:00;;;;;;;0.70;0.70;;;10.60;99.90;;;;;;5018194;28;20056;-78
2022/09/01 04:18:25;;;;;;;0.60;0.60;;;10.60;99.90;;;;;;5013770;28;20484;-79
2022/09/01 04:20:55;;;;;;;0.90;0.70;;;10.60;99.90;;;;;;5020390;28;20724;-78
2022/09/01 04:23:25;;;;;;;1.00;0.68;;;10.60;99.90;;;;;;5021516;28;20061;-78
2022/09/01 04:25:54;;;;;;;0.60;0.60;;;10.60;99.90;;;;;;5015652;28;20026;-78
2022/09/01 04:28:23;;;;;;;1.00;0.90;;;10.60;99.90;;;;;;5015186;28;20053;-78
2022/09/01 04:30:55;;;;;;;1.38;0.55;;;10.50;99.90;;;;;;5020424;28;20440;-78
2022/09/01 04:33:26;;;;;;;0.63;0.52;;;10.60;99.90;;;;;;5022778;28;20037;-78
2022/09/01 04:35:55;;;;;;;0.57;0.57;;;10.50;99.90;;;;;;5018745;28;20038;-78
2022/09/01 04:38:22;;;;;;;0.70;0.70;;;10.50;99.90;;;;;;5016661;28;20060;-77
2022/09/01 04:40:48;;;;;;;0.60;0.60;;;10.50;99.90;;;;;;5014309;28;20468;-77
2022/09/01 04:43:14;;;;;;;0.50;0.50;;;10.60;99.90;;;;;;5016376;28;20018;-78
2022/09/01 04:45:39;;;;;;;2.17;1.27;;;10.50;99.90;;;;;;5015650;28;20041;-77
2022/09/01 04:48:06;;;;;;;0.60;0.60;;;10.60;99.90;;;;;;5020133;28;20400;-78
2022/09/01 04:50:33;;;;;;;1.02;0.63;;;10.60;99.90;;;;;;5020507;28;20025;-78
2022/09/01 04:53:01;;;;;;;2.72;0.77;;;10.60;99.90;;;;;;5019063;28;20174;-78
2022/09/01 04:55:28;;;;;;;0.70;0.70;;;10.60;99.90;;;;;;5022883;28;20336;-78
2022/09/01 04:57:56;;;;;;;0.77;0.68;;;10.60;99.90;;;;;;5017214;28;20064;-79
2022/09/01 05:00:24;;;;;;;0.60;0.60;;;10.60;99.90;;;;;;5016568;28;20033;-78
2022/09/01 05:03:02;;;;;;;0.75;0.70;;;10.60;99.90;;;;;;5015916;28;20029;-79
2022/09/01 05:05:38;;;;;;;0.77;0.77;;;10.60;99.90;;;;;;5013395;28;20029;-78
2022/09/01 05:08:04;;;;;;;1.60;1.00;;;10.70;99.90;;;;;;5017188;28;20033;-79
2022/09/01 05:10:33;;;;;;;0.52;0.50;;;10.70;99.90;;;;;;5016682;28;20112;-77
2022/09/01 05:13:00;;;;;;;0.68;0.55;;;10.80;99.90;;;;;;5017482;28;20021;-74
2022/09/01 05:15:26;;;;;;;1.20;0.80;;;10.80;99.90;;;;;;5015960;28;20064;-80
2022/09/01 05:17:55;;;;;;;1.50;0.63;;;10.80;99.90;;;;;;5019094;28;20523;-81
2022/09/01 05:20:20;;;;;;;0.43;0.40;;;10.90;99.90;;;;;;5017119;28;20036;-81
2022/09/01 05:22:46;;;;;;;0.88;0.85;;;10.90;99.90;;;;;;5014775;28;20113;-79
2022/09/01 05:25:14;;;;;;;0.50;0.50;;;11.00;99.90;;;;;;5016637;28;20060;-81
2022/09/01 05:27:48;;;;;;;0.82;0.82;;;11.10;99.90;;;;;;5018465;28;20373;-79
2022/09/01 05:30:15;;;;;;;0.60;0.60;;;11.10;99.90;;;;;;5020035;28;20133;-80
2022/09/01 05:32:42;;;;;;;0.50;0.50;;;11.20;99.90;;;;;;5020252;28;20041;-81
2022/09/01 05:35:08;;;;;;;0.55;0.55;;;11.20;99.90;;;;;;5016977;28;20037;-82
2022/09/01 05:37:36;;;;;;;0.60;0.60;;;11.30;99.90;;;;;;5019269;28;20048;-80
2022/09/01 05:40:03;;;;;;;0.85;0.80;;;11.30;99.90;;;;;;5019894;28;20025;-79
2022/09/01 05:42:29;;;;;;;1.55;0.93;;;11.40;99.90;;;;;;5018166;28;20033;-79
2022/09/01 05:44:54;;;;;;;0.57;0.50;;;11.50;99.90;;;;;;5018742;28;20056;-78
2022/09/01 05:47:20;;;;;;;1.20;0.70;;;11.50;99.90;;;;;;5014380;28;20490;-80
2022/09/01 05:49:48;;;;;;;0.82;0.60;;;11.60;99.90;;;;;;5020028;28;20426;-79
2022/09/01 05:52:14;;;;;;;1.02;0.90;;;11.70;99.90;;;;;;5021243;28;20519;-79
2022/09/01 05:54:40;;;;;;;0.70;0.70;;;11.70;99.90;;;;;;5011019;28;20029;-78
2022/09/01 05:57:06;;;;;;;0.60;0.60;;;11.90;99.90;;;;;;5021430;28;20041;-78
2022/09/01 05:59:32;;;;;;;0.85;0.68;;;11.90;99.90;;;;;;5014784;28;20033;-81
2022/09/01 06:01:58;;;;;;;0.60;0.60;;;11.90;99.90;;;;;;5023254;28;20025;-81
2022/09/01 06:04:26;;;;;;;0.40;0.40;;;12.00;99.90;;;;;;5021682;28;20037;-80
2022/09/01 06:06:55;;;;;;;0.82;0.70;;;12.10;99.90;;;;;;5023956;28;20053;-80
2022/09/01 06:09:22;;;;;;;0.60;0.60;;;12.20;99.90;;;;;;5024817;28;20084;-79
2022/09/01 06:11:48;;;;;;;0.80;0.80;;;12.30;99.90;;;;;;5023982;28;20124;-79
2022/09/01 06:14:15;;;;;;;0.40;0.40;;;12.30;99.90;;;;;;5024319;28;20119;-80
2022/09/01 06:16:42;;;;;;;0.70;0.70;;;12.30;99.90;;;;;;5019035;28;20084;-78
2022/09/01 06:19:09;;;;;;;0.40;0.40;;;12.40;99.90;;;;;;5022791;28;20087;-78
2022/09/01 06:21:35;;;;;;;0.70;0.70;;;12.40;99.90;;;;;;5021554;28;20037;-77
2022/09/01 06:24:00;;;;;;;0.55;0.47;;;12.50;99.90;;;;;;5020754;28;20103;-79
2022/09/01 06:26:29;;;;;;;0.55;0.55;;;12.60;99.90;;;;;;5021773;28;20057;-77
2022/09/01 06:28:57;;;;;;;1.27;0.80;;;12.70;99.90;;;;;;5001572;28;20018;-79
2022/09/01 06:31:24;;;;;;;0.55;0.55;;;12.80;99.90;;;;;;5021337;28;20107;-79
2022/09/01 06:33:52;;;;;;;0.60;0.60;;;12.90;99.90;;;;;;5025080;28;20033;-80
2022/09/01 06:36:22;;;;;;;0.65;0.38;;;12.90;99.90;;;;;;5023052;28;20488;-77
2022/09/01 06:38:50;;;;;;;0.50;0.50;;;13.00;99.90;;;;;;5024062;28;20025;-78
2022/09/01 06:41:18;;;;;;;0.47;0.43;;;13.20;99.90;;;;;;5021365;28;20026;-77
2022/09/01 06:43:44;;;;;;;0.40;0.40;;;13.30;99.90;;;;;;5025687;28;20030;-77
2022/09/01 06:46:10;;;;;;;0.80;0.60;;;13.30;99.90;;;;;;5024137;28;20055;-77
2022/09/01 06:48:40;;;;;;;0.55;0.55;;;13.40;99.90;;;;;;5023554;28;20021;-77
2022/09/01 06:51:08;;;;;;;0.47;0.47;;;13.50;99.90;;;;;;5021031;28;20464;-77
2022/09/01 06:53:33;;;;;;;0.68;0.68;;;13.60;99.90;;;;;;5022513;28;20299;-77
2022/09/01 06:55:59;;;;;;;0.80;0.70;;;13.70;99.90;;;;;;5020489;28;20473;-78
2022/09/01 06:58:24;;;;;;;0.38;0.38;;;13.70;99.90;;;;;;5024592;28;20021;-77
2022/09/01 07:00:50;;;;;;;0.60;0.60;;;13.80;99.90;;;;;;5023341;28;20029;-78
2022/09/01 07:03:16;;;;;;;0.65;0.60;;;13.80;99.90;;;;;;5027025;28;20125;-78
2022/09/01 07:05:48;;;;;;;0.47;0.47;;;14.00;99.90;;;;;;5027025;28;20013;-78
2022/09/01 07:08:20;;;;;;;0.60;0.60;;;14.00;99.90;;;;;;5025882;28;20057;-77
2022/09/01 07:10:49;;;;;;;3.15;1.17;;;14.10;99.90;;;;;;5025789;28;20075;-77
2022/09/01 07:13:21;;;;;;;0.60;0.60;;;14.10;99.90;;;;;;5026536;28;20505;-78
2022/09/01 07:15:48;;;;;;;0.50;0.50;;;14.20;99.90;;;;;;5021090;28;20107;-77
2022/09/01 07:18:25;;;;;;;3.58;0.68;;;14.30;99.90;;;;;;5020302;28;20041;-77
2022/09/01 07:20:52;;;;;;;0.75;0.75;;;14.40;99.90;;;;;;5023141;28;20112;-77
2022/09/01 07:23:23;;;;;;;0.47;0.47;;;14.50;99.90;;;;;;5025675;28;20388;-77
2022/09/01 07:25:56;;;;;;;0.77;0.75;;;14.60;99.90;;;;;;5021417;28;20034;-78
2022/09/01 07:28:22;;;;;;;0.50;0.50;;;14.60;99.90;;;;;;5018280;28;20115;-78
2022/09/01 07:30:51;;;;;;;2.28;0.73;;;14.70;99.90;;;;;;5024528;28;20076;-77
2022/09/01 07:33:22;;;;;;;0.82;0.70;;;14.80;99.90;;;;;;5025326;28;21632;-77
2022/09/01 07:35:48;;;;;;;0.52;0.40;;;14.90;99.90;;;;;;5026783;28;20037;-77
2022/09/01 07:38:14;;;;;;;0.55;0.52;;;15.00;99.90;;;;;;5023016;28;20029;-77
2022/09/01 07:40:41;;;;;;;0.45;0.45;;;15.10;99.90;;;;;;5021861;28;20039;-80
2022/09/01 07:43:14;;;;;;;0.50;0.50;;;15.20;99.90;;;;;;5017926;28;20018;-80
2022/09/01 07:45:45;;;;;;;2.35;0.80;;;15.30;99.90;;;;;;5023934;28;20032;-82
2022/09/01 07:48:11;;;;;;;0.68;0.47;;;15.60;99.90;;;;;;5023347;28;20036;-87
2022/09/01 07:50:43;;;;;;;0.80;0.70;;;15.70;99.90;;;;;;5025539;28;20040;-83
2022/09/01 07:53:11;;;;;;;0.40;0.40;;;15.80;99.90;;;;;;5016137;28;20052;-84
2022/09/01 07:55:40;;;;;;;1.50;1.35;;;15.90;99.90;;;;;;5017057;28;20079;-84
2022/09/01 07:58:05;;;;;;;0.40;0.40;;;15.90;99.90;;;;;;5020065;28;20029;-83
2022/09/01 08:00:33;;;;;;;0.65;0.65;;;16.00;99.90;;;;;;5024905;28;20037;-83
2022/09/01 08:02:58;;;;;;;0.43;0.43;;;16.20;99.90;;;;;;5022468;28;20036;-79
2022/09/01 08:05:25;;;;;;;0.77;0.77;;;16.30;99.90;;;;;;5019896;28;20388;-86
2022/09/01 08:07:52;;;;;;;0.75;0.70;;;16.40;99.90;;;;;;5026064;28;20033;-81
2022/09/01 08:10:18;;;;;;;1.95;0.68;;;16.50;99.90;;;;;;5028557;28;20063;-84
2022/09/01 08:12:44;;;;;;;1.02;0.60;;;16.80;99.90;;;;;;5027618;28;20185;-84
2022/09/01 08:15:12;;;;;;;1.02;0.65;;;16.90;99.90;;;;;;5028811;28;20035;-81
2022/09/01 08:17:38;;;;;;;0.30;0.30;;;17.00;99.90;;;;;;5025858;28;20033;-82
2022/09/01 08:20:07;;;;;;;0.68;0.50;;;17.00;99.90;;;;;;5028254;28;20088;-87
2022/09/01 08:22:32;;;;;;;0.30;0.30;;;17.10;99.90;;;;;;5025827;28;20033;-84
2022/09/01 08:24:58;;;;;;;0.63;0.50;;;17.20;99.90;;;;;;5026811;28;20093;-86
2022/09/01 08:27:23;;;;;;;0.40;0.40;;;17.20;99.90;;;;;;5024953;28;20071;-87
2022/09/01 08:29:49;;;;;;;0.50;0.50;;;17.20;99.90;;;;;;5026757;28;20053;-85
2022/09/01 08:32:19;;;;;;;1.25;0.73;;;17.30;99.90;;;;;;5026520;28;20427;-87
2022/09/01 08:34:44;;;;;;;0.57;0.40;;;17.30;99.90;;;;;;5026020;28;20369;-86
2022/09/01 08:37:10;;;;;;;0.45;0.45;;;17.50;99.90;;;;;;5025657;28;20127;-83
2022/09/01 08:39:35;;;;;;;0.82;0.63;;;17.70;99.90;;;;;;5026197;28;20121;-83
2022/09/01 08:42:14;;;;;;;0.65;0.65;;;17.80;99.90;;;;;;5026893;28;20040;-83
2022/09/01 08:44:45;;;;;;;1.38;0.73;;;17.90;99.90;;;;;;5021295;28;20044;-82
2022/09/01 08:47:15;;;;;;;1.50;0.80;;;18.00;99.90;;;;;;5026575;28;20083;-83
2022/09/01 08:49:44;;;;;;;0.40;0.40;;;18.00;99.90;;;;;;5024759;28;20052;-83
2022/09/01 08:52:20;;;;;;;0.63;0.50;;;18.10;99.90;;;;;;5013839;28;20431;-82
2022/09/01 08:54:54;;;;;;;0.40;0.40;;;18.20;99.90;;;;;;5026672;28;20021;-83
2022/09/01 08:57:26;;;;;;;0.73;0.50;;;18.30;99.90;;;;;;5028477;28;20033;-81
2022/09/01 08:59:52;;;;;;;0.47;0.40;;;18.50;99.90;;;;;;5023145;28;20037;-85
2022/09/01 09:02:52;;;;;;;0.45;0.45;;;18.50;99.90;;;;;;5019740;28;20563;-80
2022/09/01 09:05:30;;;;;;;0.95;0.60;;;18.60;99.90;;;;;;5017248;28;20034;-84
2022/09/01 09:08:15;;;;;;;0.88;0.50;;;18.90;99.90;;;;;;5018988;28;20058;-79
2022/09/01 09:10:48;;;;;;;0.63;0.63;;;18.80;99.50;;;;;;5028216;28;20539;-80
2022/09/01 09:13:26;;;;;;;0.30;0.30;;;18.80;99.20;;;;;;5027389;28;20025;-79
2022/09/01 09:16:05;;;;;;;0.80;0.65;;;18.80;99.70;;;;;;5024358;28;20048;-78
2022/09/01 09:18:34;;;;;;;0.50;0.50;;;18.90;99.90;;;;;;5025924;28;20491;-81
2022/09/01 09:21:31;;;;;;;2.60;0.43;;;19.00;99.20;;;;;;5022882;28;20423;-80
2022/09/01 09:24:16;;;;;;;0.40;0.40;;;19.20;97.60;;;;;;5023275;28;20045;-83
2022/09/01 09:26:50;;;;;;;0.50;0.40;;;19.40;97.70;;;;;;5018004;28;20026;-81
2022/09/01 09:29:17;;;;;;;0.47;0.47;;;19.40;97.50;;;;;;5025008;28;20034;-85
2022/09/01 09:31:47;;;;;;;0.57;0.50;;;19.40;97.30;;;;;;5025378;28;20069;-84
2022/09/01 09:34:29;;;;;;;0.30;0.28;;;19.60;96.30;;;;;;5026388;28;20057;-82
2022/09/01 09:37:01;;;;;;;2.28;0.82;;;19.70;95.40;;;;;;5026263;28;20463;-89
2022/09/01 09:39:27;;;;;;;0.40;0.40;;;19.90;95.10;;;;;;5030101;28;20046;-87
2022/09/01 09:42:09;;;;;;;0.40;0.40;;;20.20;93.90;;;;;;5030042;28;20045;-89
2022/09/01 09:44:44;;;;;;;0.30;0.30;;;20.30;91.00;;;;;;5031147;28;20064;-90
2022/09/01 09:47:30;;;;;;;0.30;0.30;;;20.40;88.60;;;;;;5029499;28;20451;-87
2022/09/01 09:50:21;;;;;;;0.57;0.57;;;20.30;86.60;;;;;;5031425;28;20033;-82
2022/09/01 09:52:48;;;;;;;0.40;0.40;;;20.30;85.70;;;;;;5029053;28;20029;-78
2022/09/01 09:55:24;;;;;;;0.38;0.38;;;20.40;85.20;;;;;;5028928;28;20510;-88
2022/09/01 09:58:08;;;;;;;0.40;0.40;;;20.40;85.20;;;;;;5029453;28;20766;-82
2022/09/01 10:00:34;;;;;;;0.30;0.30;;;20.50;84.20;;;;;;5028434;28;20056;-81
2022/09/01 10:03:11;;;;;;;0.55;0.35;;;20.50;87.00;;;;;;5031012;28;20496;-83
2022/09/01 10:05:44;;;;;;;0.25;0.25;;;20.50;84.10;;;;;;5021202;28;20164;-82
2022/09/01 10:08:14;;;;;;;0.20;0.20;;;20.30;83.20;;;;;;5029820;28;20078;-82
2022/09/01 10:10:43;;;;;;;0.30;0.30;;;20.50;85.20;;;;;;5030069;28;20030;-83
2022/09/01 10:13:13;;;;;;;0.40;0.40;;;20.90;80.60;;;;;;5029597;28;20063;-81
2022/09/01 10:15:42;;;;;;;0.22;0.22;;;21.20;79.60;;;;;;5030685;28;20026;-84
2022/09/01 10:18:13;;;;;;;2.92;0.47;;;21.50;78.20;;;;;;5030389;28;20041;-83
2022/09/01 10:20:53;;;;;;;0.40;0.40;;;21.70;75.70;;;;;;5030251;28;20033;-82
2022/09/01 10:23:19;;;;;;;0.57;0.47;;;22.00;78.40;;;;;;5029211;28;20455;-82
2022/09/01 10:25:45;;;;;;;0.32;0.32;;;22.30;76.50;;;;;;5030202;28;20025;-82
2022/09/01 10:28:16;;;;;;;0.60;0.38;;;22.30;71.60;;;;;;5029764;28;20108;-82
2022/09/01 10:30:44;;;;;;;0.40;0.40;;;22.50;71.60;;;;;;5030265;28;20656;-84
2022/09/01 10:33:13;;;;;;;0.40;0.40;;;22.60;69.10;;;;;;5031821;28;20484;-85
2022/09/01 10:35:43;;;;;;;0.35;0.35;;;22.50;70.70;;;;;;5030447;28;20104;-84
2022/09/01 10:38:24;;;;;;;0.45;0.40;;;22.30;72.30;;;;;;5029953;28;20040;-84
2022/09/01 10:41:06;;;;;;;0.47;0.47;;;22.40;71.80;;;;;;5025950;28;20038;-84
2022/09/01 10:43:40;;;;;;;0.80;0.57;;;21.90;69.10;;;;;;5028640;28;20029;-84
2022/09/01 10:46:20;;;;;;;0.30;0.30;;;21.90;72.90;;;;;;5030254;28;20060;-85
2022/09/01 10:48:48;;;;;;;0.30;0.30;;;22.60;74.50;;;;;;5030232;28;20078;-85
2022/09/01 10:51:13;;;;;;;2.38;0.60;;;22.80;68.30;;;;;;5027051;28;20116;-85
2022/09/01 10:53:42;;;;;;;0.70;0.40;;;22.70;64.40;;;;;;5026626;28;20108;-86
2022/09/01 10:56:13;;;;;;;1.38;0.45;;;22.90;63.50;;;;;;5030131;28;20526;-86
2022/09/01 10:59:03;;;;;;;0.75;0.30;;;23.20;61.70;;;;;;5029670;28;20041;-83
2022/09/01 11:01:44;;;;;;;0.40;0.40;;;24.20;65.00;;;;;;5030172;28;20237;-83
2022/09/01 11:04:21;;;;;;;0.47;0.40;;;24.80;61.60;;;;;;5028240;28;20033;-85
2022/09/01 11:06:50;;;;;;;0.20;0.20;;;24.60;58.50;;;;;;5025690;28;20021;-83
2022/09/01 11:09:26;;;;;;;0.40;0.40;;;24.00;59.90;;;;;;5025121;28;20029;-85
2022/09/01 11:12:31;;;;;;;0.20;0.20;;;24.00;59.10;;;;;;5038278;28;20025;-85
2022/09/01 11:15:03;;;;;;;0.30;0.30;;;24.70;60.40;;;;;;5027234;28;20109;-84
2022/09/01 11:17:36;;;;;;;0.40;0.40;;;25.70;58.50;;;;;;5025083;28;20029;-85
2022/09/01 11:20:28;;;;;;;0.82;0.50;;;26.60;57.80;;;;;;5028928;28;20055;-85
2022/09/01 11:22:58;;;;;;;0.20;0.20;;;29.50;48.60;;;;;;5017216;28;20439;-85
2022/09/01 11:25:40;;;;;;;0.40;0.40;;;33.40;43.00;;;;;;5028065;28;20017;-82
2022/09/01 11:28:14;;;;;;;0.52;0.25;;;35.10;37.50;;;;;;5024670;28;20115;-85
2022/09/01 11:30:53;;;;;;;0.35;0.35;;;33.40;36.50;;;;;;5028988;28;20294;-82
2022/09/01 11:33:57;;;;;;;0.43;0.40;;;33.00;39.90;;;;;;5022167;28;20435;-85
2022/09/01 11:36:28;;;;;;;0.30;0.30;;;30.30;42.30;;;;;;5027829;28;20033;-83
2022/09/01 11:39:13;;;;;;;0.65;0.30;;;29.00;42.90;;;;;;5025038;28;20040;-86
2022/09/01 11:42:09;;;;;;;0.40;0.40;;;27.60;47.30;;;;;;5028429;28;20029;-87
2022/09/01 11:44:38;;;;;;;0.30;0.30;;;26.50;48.70;;;;;;5028849;28;20037;-83
2022/09/01 11:47:25;;;;;;;0.30;0.30;;;25.30;51.20;;;;;;5028574;28;20075;-86
2022/09/01 11:49:58;;;;;;;0.70;0.55;;;24.50;54.60;;;;;;5024300;28;20076;-86
2022/09/01 11:52:28;;;;;;;0.30;0.30;;;23.80;56.40;;;;;;5026311;28;20029;-86
2022/09/01 11:54:56;;;;;;;;;;;23.80;56.20;;;;;;5028127;28;20075;-83
2022/09/01 11:57:32;;;;;;;0.38;0.38;;;24.40;57.00;;;;;;5009480;28;20586;-86
2022/09/01 12:00:03;;;;;;;0.38;0.38;;;24.30;55.40;;;;;;5028830;28;20067;-86
2022/09/01 12:02:32;;;;;;;0.40;0.30;;;23.50;58.10;;;;;;5025552;28;20083;-85
2022/09/01 12:05:00;;;;;;;0.28;0.28;;;23.30;59.30;;;;;;5026831;28;20124;-83
2022/09/01 12:07:34;;;;;;;0.30;0.30;;;23.00;59.80;;;;;;5009373;28;20036;-84
2022/09/01 12:10:00;;;;;;;0.30;0.30;;;23.00;60.70;;;;;;5023117;28;20040;-84
2022/09/01 12:12:35;;;;;;;1.80;0.40;;;24.40;57.90;;;;;;5026409;28;20033;-82
2022/09/01 12:15:14;;;;;;;0.32;0.30;;;32.90;45.30;;;;;;5028363;28;20033;-90
2022/09/01 12:17:40;;;;;;;0.30;0.30;;;33.90;39.60;;;;;;5028548;28;20289;-86
2022/09/01 12:20:27;;;;;;;0.30;0.30;;;30.00;44.30;;;;;;5031496;28;20029;-87
2022/09/01 12:22:53;;;;;;;0.28;0.28;;;27.70;48.10;;;;;;5025801;28;20440;-90
2022/09/01 12:25:45;;;;;;;0.40;0.28;;;26.50;50.70;;;;;;5023103;28;20017;-89
2022/09/01 12:28:11;;;;;;;0.65;0.40;;;25.60;52.70;;;;;;5022794;28;20057;-87
2022/09/01 12:30:40;;;;;;;0.63;0.43;;;25.40;54.10;;;;;;5025268;28;20135;-89
2022/09/01 12:33:09;;;;;;;0.47;0.38;;;26.30;53.10;;;;;;5027889;28;20021;-88
2022/09/01 12:35:35;;;;;;;0.30;0.30;;;32.10;45.50;;;;;;5025138;28;20037;-88
2022/09/01 12:38:18;;;;;;;0.30;0.30;;;33.00;43.00;;;;;;5027796;28;20030;-90
2022/09/01 12:40:48;;;;;;;0.45;0.40;;;33.10;40.40;;;;;;5022941;28;20033;-88
2022/09/01 12:43:34;;;;;;;0.23;0.23;;;36.50;38.10;;;;;;5027125;28;20380;-86
2022/09/01 12:46:00;;;;;;;0.40;0.40;;;38.30;34.40;;;;;;5026940;28;20087;-88
2022/09/01 12:48:29;;;;;;;0.30;0.30;;;41.10;32.10;;;;;;5028301;28;20036;-87
2022/09/01 12:50:57;;;;;;;0.32;0.32;;;42.20;29.30;;;;;;5021455;28;20056;-87
2022/09/01 12:53:26;;;;;;;0.30;0.30;;;44.20;28.30;;;;;;5026333;28;20039;-89
2022/09/01 12:56:00;;;;;;;0.95;0.30;;;44.60;27.50;;;;;;5027979;28;20029;-86
2022/09/01 12:58:28;;;;;;;0.25;0.25;;;44.20;27.10;;;;;;5028273;28;20025;-88
2022/09/01 13:01:07;;;;;;;0.30;0.30;;;45.40;26.40;;;;;;5028401;28;20490;-88
2022/09/01 13:03:33;;;;;;;0.40;0.40;;;46.10;26.60;;;;;;5027571;28;20033;-86
2022/09/01 13:06:01;;;;;;;0.47;0.38;;;42.60;26.40;;;;;;5026934;28;20068;-88